Time;durP1;ratioP1;P1;durP2;ratioP2;P2;SDS_P1;SDS_P2;PMS_P1;PMS_P2;Temp;Humidity;BMP_temperature;BMP_pressure;BME280_temperature;BME280_humidity;BME280_pressure;Samples;Min_cycle;Max_cycle;Signal;HPM_P1;HPM_P2
2024/03/15 00:00:28;;;;;;;12.60;11.30;;;13.50;99.90;;;;;;5024299;28;20216;-72
2024/03/15 00:02:55;;;;;;;12.68;10.40;;;13.50;99.90;;;;;;5052513;28;20204;-69
2024/03/15 00:05:24;;;;;;;13.60;10.70;;;13.40;99.90;;;;;;5059821;28;20231;-68
2024/03/15 00:07:52;;;;;;;13.55;10.07;;;13.40;99.90;;;;;;5027297;28;20212;-67
2024/03/15 00:10:19;;;;;;;13.48;11.45;;;13.50;99.90;;;;;;5049999;28;20231;-67
2024/03/15 00:12:46;;;;;;;11.65;10.45;;;13.50;99.90;;;;;;5038602;28;20527;-70
2024/03/15 00:15:13;;;;;;;12.65;11.38;;;13.50;99.90;;;;;;5046388;28;20372;-70
2024/03/15 00:17:40;;;;;;;15.55;11.85;;;13.50;99.90;;;;;;5014191;28;20717;-70
2024/03/15 00:20:08;;;;;;;15.65;12.98;;;13.50;99.90;;;;;;5039070;28;20227;-68
2024/03/15 00:22:36;;;;;;;14.27;11.88;;;13.50;99.90;;;;;;5053328;28;20212;-69
2024/03/15 00:25:03;;;;;;;12.45;11.00;;;13.50;99.90;;;;;;5053533;28;20231;-66
2024/03/15 00:27:30;;;;;;;11.40;9.88;;;13.40;99.90;;;;;;5030454;28;20233;-68
2024/03/15 00:29:58;;;;;;;14.13;12.55;;;13.40;99.90;;;;;;5064085;28;20210;-69
2024/03/15 00:32:27;;;;;;;14.40;11.30;;;13.50;99.90;;;;;;5043870;28;20232;-70
2024/03/15 00:34:54;;;;;;;14.95;11.38;;;13.50;99.90;;;;;;5062317;28;20290;-71
2024/03/15 00:37:21;;;;;;;11.57;8.73;;;13.40;99.90;;;;;;5060590;28;20236;-67
2024/03/15 00:39:48;;;;;;;14.48;10.20;;;13.50;99.90;;;;;;5055057;28;20208;-71
2024/03/15 00:42:15;;;;;;;13.27;10.60;;;13.50;99.90;;;;;;5045687;28;20262;-70
2024/03/15 00:44:42;;;;;;;11.90;10.27;;;13.50;99.90;;;;;;5060465;28;20203;-69
2024/03/15 00:47:12;;;;;;;10.60;9.35;;;13.40;99.90;;;;;;5033750;28;20199;-67
2024/03/15 00:49:39;;;;;;;14.00;9.52;;;13.50;99.90;;;;;;5053356;28;20196;-70
2024/03/15 00:52:06;;;;;;;13.40;9.73;;;13.50;99.90;;;;;;5033631;28;20199;-67
2024/03/15 00:54:34;;;;;;;11.43;9.68;;;13.50;99.90;;;;;;5052465;28;20200;-67
2024/03/15 00:57:03;;;;;;;12.75;9.43;;;13.50;99.90;;;;;;5053145;28;20604;-70
2024/03/15 00:59:30;;;;;;;12.57;9.93;;;13.50;99.90;;;;;;5058067;28;20204;-68
2024/03/15 01:01:58;;;;;;;11.43;9.07;;;13.50;99.90;;;;;;5029912;28;20251;-69
2024/03/15 01:04:27;;;;;;;14.45;9.13;;;13.50;99.90;;;;;;5054443;28;20543;-66
2024/03/15 01:06:54;;;;;;;11.60;10.38;;;13.40;99.90;;;;;;5054411;28;20219;-70
2024/03/15 01:09:21;;;;;;;11.73;10.52;;;13.40;99.90;;;;;;5039088;28;20204;-65
2024/03/15 01:11:50;;;;;;;10.10;9.10;;;13.30;99.90;;;;;;5048793;28;20204;-70
2024/03/15 01:14:17;;;;;;;12.02;9.55;;;13.30;99.90;;;;;;5048791;28;20204;-66
2024/03/15 01:16:46;;;;;;;10.73;9.57;;;13.30;99.90;;;;;;5038762;28;20778;-67
2024/03/15 01:19:13;;;;;;;13.43;8.93;;;13.30;99.90;;;;;;5058659;28;20274;-68
2024/03/15 01:21:40;;;;;;;12.30;10.18;;;13.40;99.90;;;;;;5062301;28;20235;-68
2024/03/15 01:24:12;;;;;;;12.98;10.85;;;13.40;99.90;;;;;;5051710;28;20210;-69
2024/03/15 01:26:39;;;;;;;12.18;9.30;;;13.40;99.90;;;;;;5039394;28;20227;-68
2024/03/15 01:29:07;;;;;;;13.02;10.75;;;13.40;99.90;;;;;;5053687;28;20199;-67
2024/03/15 01:31:35;;;;;;;10.63;9.65;;;13.40;99.90;;;;;;5047782;28;20203;-67
2024/03/15 01:34:02;;;;;;;11.50;10.35;;;13.50;99.90;;;;;;5050869;28;20208;-67
2024/03/15 01:36:29;;;;;;;11.82;10.35;;;13.50;99.90;;;;;;5051037;28;20278;-69
2024/03/15 01:38:56;;;;;;;10.70;9.60;;;13.50;99.90;;;;;;5056271;28;20200;-68
2024/03/15 01:41:23;;;;;;;11.73;10.48;;;13.40;99.90;;;;;;5050741;28;20219;-68
2024/03/15 01:43:50;;;;;;;13.82;11.07;;;13.50;99.90;;;;;;5045281;28;20650;-67
2024/03/15 01:46:17;;;;;;;11.95;10.20;;;13.40;99.90;;;;;;5047087;28;20260;-67
2024/03/15 01:48:45;;;;;;;11.68;9.90;;;13.30;99.90;;;;;;5022784;28;20618;-69
2024/03/15 01:51:12;;;;;;;14.60;10.80;;;13.30;99.90;;;;;;5050889;28;20553;-69
2024/03/15 01:53:39;;;;;;;12.10;10.90;;;13.30;99.90;;;;;;5053316;28;20204;-69
2024/03/15 01:56:06;;;;;;;16.10;11.68;;;13.30;99.90;;;;;;5057340;28;20692;-66
2024/03/15 01:58:34;;;;;;;15.30;11.75;;;13.20;99.90;;;;;;5068405;28;20203;-67
2024/03/15 02:01:02;;;;;;;12.57;10.00;;;13.20;99.90;;;;;;5048353;28;20673;-70
2024/03/15 02:03:29;;;;;;;15.57;10.98;;;13.10;99.90;;;;;;5014649;28;20265;-67
2024/03/15 02:05:56;;;;;;;13.52;10.27;;;13.20;99.90;;;;;;5064072;28;20626;-69
2024/03/15 02:08:24;;;;;;;12.82;10.07;;;13.30;99.90;;;;;;5050243;28;20265;-69
2024/03/15 02:10:51;;;;;;;10.98;9.43;;;13.30;99.90;;;;;;5050690;28;20204;-69
2024/03/15 02:13:18;;;;;;;11.65;10.23;;;13.30;99.90;;;;;;5043616;28;20265;-68
2024/03/15 02:15:46;;;;;;;13.57;9.85;;;13.30;99.90;;;;;;5056490;28;20594;-68
2024/03/15 02:18:12;;;;;;;12.32;10.05;;;13.20;99.90;;;;;;5049771;28;20301;-68
2024/03/15 02:20:39;;;;;;;10.77;9.68;;;13.20;99.90;;;;;;5051079;28;20311;-68
2024/03/15 02:23:06;;;;;;;13.20;9.77;;;13.10;99.90;;;;;;5037833;28;20238;-68
2024/03/15 02:25:33;;;;;;;14.32;11.32;;;13.10;99.90;;;;;;5048548;28;20223;-71
2024/03/15 02:28:00;;;;;;;11.02;9.82;;;13.10;99.90;;;;;;5027358;28;20238;-70
2024/03/15 02:30:27;;;;;;;11.40;9.63;;;13.20;99.90;;;;;;5034469;28;20681;-68
2024/03/15 02:32:54;;;;;;;10.57;7.85;;;13.20;99.90;;;;;;5064416;28;20305;-66
2024/03/15 02:35:21;;;;;;;11.00;9.88;;;13.30;99.90;;;;;;5059861;28;20243;-71
2024/03/15 02:37:48;;;;;;;10.50;9.40;;;13.40;99.90;;;;;;5020162;28;20204;-71
2024/03/15 02:40:15;;;;;;;9.73;8.60;;;13.30;99.90;;;;;;5053545;28;20246;-69
2024/03/15 02:42:43;;;;;;;14.05;9.60;;;13.40;99.90;;;;;;5055321;28;20749;-70
2024/03/15 02:45:10;;;;;;;11.20;9.07;;;13.40;99.90;;;;;;5050687;28;20781;-70
2024/03/15 02:47:38;;;;;;;13.35;9.88;;;13.30;99.90;;;;;;5063960;28;20287;-65
2024/03/15 02:50:06;;;;;;;9.50;8.60;;;13.20;99.90;;;;;;5038927;28;20204;-67
2024/03/15 02:52:33;;;;;;;14.02;9.65;;;13.20;99.90;;;;;;5056799;28;20565;-68
2024/03/15 02:55:00;;;;;;;10.65;9.00;;;13.20;99.90;;;;;;5063449;28;20204;-68
2024/03/15 02:57:30;;;;;;;10.38;9.10;;;13.30;99.90;;;;;;5057579;28;20261;-69
2024/03/15 02:59:57;;;;;;;10.75;9.65;;;13.40;99.90;;;;;;5054808;28;20204;-68
2024/03/15 03:02:24;;;;;;;9.35;8.45;;;13.30;99.90;;;;;;5058720;28;20281;-68
2024/03/15 03:04:52;;;;;;;9.75;8.43;;;13.30;99.90;;;;;;5039219;28;20227;-71
2024/03/15 03:07:19;;;;;;;12.90;9.32;;;13.30;99.90;;;;;;5054882;28;20291;-68
2024/03/15 03:09:47;;;;;;;11.60;9.52;;;13.30;99.90;;;;;;5052108;28;20204;-65
2024/03/15 03:12:14;;;;;;;13.13;9.68;;;13.10;99.90;;;;;;5056462;28;20303;-68
2024/03/15 03:14:42;;;;;;;13.55;9.88;;;13.10;99.90;;;;;;5054587;28;20235;-68
2024/03/15 03:17:09;;;;;;;10.75;9.25;;;13.00;99.90;;;;;;5062382;28;20262;-68
2024/03/15 03:19:36;;;;;;;15.55;11.55;;;13.00;99.90;;;;;;5071713;28;20226;-67
2024/03/15 03:22:03;;;;;;;10.57;9.57;;;12.90;99.90;;;;;;5060533;28;20266;-67
2024/03/15 03:24:30;;;;;;;12.15;9.50;;;12.90;99.90;;;;;;5052778;28;20227;-70
2024/03/15 03:26:57;;;;;;;11.38;10.18;;;12.80;99.90;;;;;;5044495;28;20223;-69
2024/03/15 03:29:24;;;;;;;12.85;9.73;;;12.70;99.90;;;;;;5051415;28;20559;-64
2024/03/15 03:31:51;;;;;;;13.93;12.20;;;12.70;99.90;;;;;;5057326;28;20236;-66
2024/03/15 03:34:18;;;;;;;12.80;10.60;;;12.50;99.90;;;;;;5052664;28;20247;-67
2024/03/15 03:36:46;;;;;;;15.02;9.20;;;12.50;99.90;;;;;;5041041;28;20260;-67
2024/03/15 03:39:13;;;;;;;12.80;10.45;;;12.40;99.90;;;;;;5026080;28;20204;-70
2024/03/15 03:41:40;;;;;;;14.15;10.45;;;12.40;99.90;;;;;;5036138;28;20314;-70
2024/03/15 03:44:07;;;;;;;12.27;10.68;;;12.30;99.90;;;;;;5045501;28;20724;-69
2024/03/15 03:46:34;;;;;;;12.70;11.40;;;12.30;99.90;;;;;;5058619;28;20234;-67
2024/03/15 03:49:02;;;;;;;13.02;11.60;;;12.30;99.90;;;;;;5042157;28;20250;-69
2024/03/15 03:51:29;;;;;;;14.52;12.40;;;12.20;99.90;;;;;;5045911;28;20275;-67
2024/03/15 03:53:57;;;;;;;13.52;12.05;;;12.10;99.90;;;;;;5040607;28;20239;-70
2024/03/15 03:56:24;;;;;;;14.45;12.02;;;12.10;99.90;;;;;;5040771;28;20239;-68
2024/03/15 03:58:52;;;;;;;13.05;9.95;;;12.10;99.90;;;;;;5047423;28;20223;-69
2024/03/15 04:01:19;;;;;;;12.65;11.15;;;12.10;99.90;;;;;;5059483;28;20243;-71
2024/03/15 04:03:48;;;;;;;16.35;11.32;;;12.00;99.90;;;;;;5052413;28;20208;-66
2024/03/15 04:06:15;;;;;;;12.68;11.30;;;12.10;99.90;;;;;;5037484;28;20235;-70
2024/03/15 04:08:42;;;;;;;13.90;11.00;;;12.00;99.90;;;;;;5046523;28;20257;-71
2024/03/15 04:11:10;;;;;;;14.02;11.63;;;12.10;99.90;;;;;;5059819;28;20199;-69
2024/03/15 04:13:37;;;;;;;14.05;11.10;;;12.10;99.90;;;;;;5042421;28;20215;-68
2024/03/15 04:16:07;;;;;;;13.60;11.45;;;12.10;99.90;;;;;;5056744;28;20220;-71
2024/03/15 04:18:34;;;;;;;13.00;11.32;;;12.20;99.90;;;;;;5058194;28;20702;-68
2024/03/15 04:21:01;;;;;;;12.13;10.00;;;12.10;99.90;;;;;;5060929;28;20218;-71
2024/03/15 04:23:28;;;;;;;15.02;12.07;;;12.30;99.90;;;;;;5038375;28;20192;-67
2024/03/15 04:25:55;;;;;;;13.40;11.68;;;12.20;99.90;;;;;;5060888;28;20226;-69
2024/03/15 04:28:24;;;;;;;18.48;15.02;;;12.20;99.90;;;;;;5034603;28;20210;-69
2024/03/15 04:30:52;;;;;;;14.02;11.02;;;12.30;99.90;;;;;;5026795;28;20283;-69
2024/03/15 04:33:20;;;;;;;11.48;9.73;;;12.40;99.90;;;;;;5045701;28;20305;-70
2024/03/15 04:35:47;;;;;;;13.68;12.05;;;12.40;99.90;;;;;;5043477;28;20281;-69
2024/03/15 04:38:14;;;;;;;14.45;11.65;;;12.50;99.90;;;;;;5043304;28;20231;-69
2024/03/15 04:40:41;;;;;;;12.18;10.35;;;12.50;99.90;;;;;;5027435;28;20231;-71
2024/03/15 04:43:10;;;;;;;12.57;10.95;;;12.50;99.90;;;;;;5054007;28;20710;-70
2024/03/15 04:45:38;;;;;;;13.38;10.65;;;12.60;99.90;;;;;;5060192;28;20223;-66
2024/03/15 04:48:05;;;;;;;11.90;10.68;;;12.50;99.90;;;;;;5028041;28;20766;-70
2024/03/15 04:50:32;;;;;;;13.43;10.65;;;12.60;99.90;;;;;;5063402;28;20665;-69
2024/03/15 04:53:02;;;;;;;13.32;11.75;;;12.60;99.90;;;;;;5054952;28;20285;-69
2024/03/15 04:55:29;;;;;;;12.45;10.50;;;12.70;99.90;;;;;;5039870;28;20223;-68
2024/03/15 04:57:56;;;;;;;10.98;9.73;;;12.80;99.90;;;;;;5047231;28;20294;-70
2024/03/15 05:00:23;;;;;;;14.45;11.05;;;12.80;99.90;;;;;;5057207;28;20236;-68
2024/03/15 05:02:51;;;;;;;13.90;11.00;;;12.80;99.90;;;;;;5050727;28;20230;-70
2024/03/15 05:05:20;;;;;;;12.52;9.77;;;12.90;99.90;;;;;;5037882;28;20644;-70
2024/03/15 05:07:48;;;;;;;16.98;10.48;;;12.90;99.90;;;;;;5058950;28;20199;-67
2024/03/15 05:10:15;;;;;;;13.60;12.18;;;12.90;99.90;;;;;;5045270;28;20716;-69
2024/03/15 05:12:42;;;;;;;13.85;10.73;;;12.90;99.90;;;;;;5053344;28;20303;-69
2024/03/15 05:15:10;;;;;;;12.45;10.10;;;12.90;99.90;;;;;;5054128;28;20737;-68
2024/03/15 05:17:37;;;;;;;12.60;11.25;;;13.00;99.90;;;;;;5039484;28;20552;-67
2024/03/15 05:20:07;;;;;;;14.55;10.40;;;13.00;99.90;;;;;;5054300;28;20207;-67
2024/03/15 05:22:34;;;;;;;10.90;9.80;;;13.00;99.90;;;;;;5050515;28;20569;-70
2024/03/15 05:25:01;;;;;;;11.57;10.38;;;13.10;99.90;;;;;;5054212;28;20261;-70
2024/03/15 05:27:28;;;;;;;20.42;11.43;;;13.10;99.90;;;;;;5051431;28;20287;-69
2024/03/15 05:29:55;;;;;;;12.73;10.23;;;13.00;99.90;;;;;;5052205;28;20231;-68
2024/03/15 05:32:23;;;;;;;11.65;9.10;;;13.00;99.90;;;;;;5026264;28;20207;-66
2024/03/15 05:34:50;;;;;;;9.35;8.35;;;13.10;99.90;;;;;;5030559;28;20242;-68
2024/03/15 05:37:17;;;;;;;11.88;9.68;;;13.10;99.90;;;;;;5041459;28;20218;-69
2024/03/15 05:39:44;;;;;;;15.18;11.18;;;13.10;99.90;;;;;;5042838;28;20219;-66
2024/03/15 05:42:11;;;;;;;15.23;11.38;;;13.10;99.90;;;;;;5058307;28;20234;-66
2024/03/15 05:44:38;;;;;;;11.80;10.40;;;13.10;99.90;;;;;;5052928;28;20258;-71
2024/03/15 05:47:05;;;;;;;12.10;10.85;;;13.10;99.90;;;;;;5049479;28;20224;-69
2024/03/15 05:49:32;;;;;;;14.65;11.05;;;13.10;99.90;;;;;;5052322;28;20200;-68
2024/03/15 05:51:59;;;;;;;12.52;10.73;;;13.10;99.90;;;;;;5055657;28;20223;-67
2024/03/15 05:54:26;;;;;;;11.73;9.82;;;13.20;99.90;;;;;;5040083;28;20204;-73
2024/03/15 05:56:53;;;;;;;11.75;10.55;;;13.30;99.90;;;;;;5041271;28;20223;-70
2024/03/15 05:59:20;;;;;;;14.48;11.70;;;13.20;99.90;;;;;;5043266;28;20565;-70
2024/03/15 06:01:47;;;;;;;15.07;11.50;;;13.20;99.90;;;;;;5043287;28;20252;-71
2024/03/15 06:04:14;;;;;;;16.67;11.10;;;13.30;99.90;;;;;;5043816;28;20248;-67
2024/03/15 06:06:41;;;;;;;11.48;10.30;;;13.20;99.90;;;;;;5056254;28;20284;-68
2024/03/15 06:09:10;;;;;;;19.63;12.63;;;13.20;99.90;;;;;;5054715;28;20208;-69
2024/03/15 06:11:37;;;;;;;13.10;10.45;;;13.30;99.90;;;;;;5040078;28;20635;-70
2024/03/15 06:14:06;;;;;;;15.40;11.85;;;13.20;99.90;;;;;;5021444;28;20232;-72
2024/03/15 06:16:33;;;;;;;16.77;10.23;;;13.30;99.90;;;;;;5035422;28;20278;-68
2024/03/15 06:19:34;;;;;;;15.43;10.55;;;13.40;99.90;;;;;;5046192;28;20774;-67
2024/03/15 06:22:13;;;;;;;14.35;12.20;;;13.30;99.90;;;;;;5062986;28;20721;-70
2024/03/15 06:24:41;;;;;;;13.50;11.20;;;13.30;99.90;;;;;;5029371;28;20211;-70
2024/03/15 06:27:16;;;;;;;13.63;11.27;;;13.40;99.90;;;;;;5018584;28;20200;-70
2024/03/15 06:29:45;;;;;;;10.95;9.80;;;13.40;99.90;;;;;;5035522;28;20199;-67
2024/03/15 06:32:48;;;;;;;11.65;9.70;;;13.50;99.90;;;;;;5016397;28;20189;-69
2024/03/15 06:35:19;;;;;;;13.32;10.82;;;13.60;99.90;;;;;;5053636;28;20224;-69
2024/03/15 06:37:53;;;;;;;15.60;10.35;;;13.80;99.90;;;;;;5018385;28;20200;-68
2024/03/15 06:40:30;;;;;;;13.30;10.38;;;13.90;99.90;;;;;;5050757;28;20253;-72
2024/03/15 06:43:13;;;;;;;15.70;11.07;;;14.10;99.90;;;;;;5034596;28;20336;-69
2024/03/15 06:45:52;;;;;;;13.25;9.50;;;14.20;99.90;;;;;;5033573;28;20255;-73
2024/03/15 06:48:22;;;;;;;11.50;9.32;;;14.40;99.90;;;;;;5039853;28;20215;-67
2024/03/15 06:51:00;;;;;;;12.07;9.60;;;14.90;99.90;;;;;;5062771;28;20215;-69
2024/03/15 06:53:26;;;;;;;14.23;8.50;;;15.40;99.90;;;;;;5037513;28;20446;-70
2024/03/15 06:55:55;;;;;;;12.20;9.60;;;15.60;99.90;;;;;;5053333;28;20470;-71
2024/03/15 06:58:22;;;;;;;13.77;8.63;;;15.70;99.90;;;;;;5053289;28;20208;-70
2024/03/15 07:00:49;;;;;;;16.95;9.88;;;15.60;99.90;;;;;;5034145;28;20442;-68
2024/03/15 07:03:16;;;;;;;15.07;9.52;;;15.30;99.90;;;;;;5049532;28;20252;-71
2024/03/15 07:05:43;;;;;;;17.17;10.13;;;15.10;99.90;;;;;;5034239;28;20220;-69
2024/03/15 07:08:14;;;;;;;13.75;9.98;;;15.10;99.90;;;;;;5065546;28;20270;-68
2024/03/15 07:10:41;;;;;;;10.90;9.80;;;14.90;99.90;;;;;;5051253;28;20211;-71
2024/03/15 07:13:09;;;;;;;11.18;10.15;;;14.80;99.90;;;;;;5056948;28;20200;-69
2024/03/15 07:15:36;;;;;;;12.27;10.55;;;14.70;99.90;;;;;;5054714;28;20306;-69
2024/03/15 07:18:04;;;;;;;17.17;10.77;;;14.60;99.90;;;;;;5050808;28;20197;-71
2024/03/15 07:20:32;;;;;;;12.10;10.10;;;14.60;99.90;;;;;;5060821;28;20589;-69
2024/03/15 07:22:59;;;;;;;12.67;10.30;;;14.60;99.90;;;;;;5035927;28;20226;-71
2024/03/15 07:25:26;;;;;;;12.20;9.15;;;14.60;99.90;;;;;;5058104;28;20549;-71
2024/03/15 07:27:56;;;;;;;10.40;8.95;;;14.50;99.90;;;;;;5037108;28;20663;-69
2024/03/15 07:30:23;;;;;;;14.00;9.85;;;14.50;99.90;;;;;;5062080;28;20196;-70
2024/03/15 07:32:51;;;;;;;11.07;9.45;;;14.60;99.90;;;;;;5065993;28;20199;-72
2024/03/15 07:35:19;;;;;;;11.88;8.75;;;14.80;99.90;;;;;;5059728;28;20255;-70
2024/03/15 07:37:47;;;;;;;13.05;9.85;;;14.80;99.90;;;;;;5057035;28;20200;-68
2024/03/15 07:40:14;;;;;;;11.00;9.80;;;14.90;99.90;;;;;;5053331;28;20282;-71
2024/03/15 07:42:42;;;;;;;14.88;9.75;;;14.70;99.90;;;;;;5044285;28;20298;-71
2024/03/15 07:45:10;;;;;;;14.07;10.35;;;14.70;99.90;;;;;;5056558;28;20292;-72
2024/03/15 07:47:37;;;;;;;11.10;8.93;;;14.40;99.90;;;;;;5039982;28;20207;-72
2024/03/15 07:50:07;;;;;;;13.70;9.15;;;14.40;99.90;;;;;;5047721;28;20286;-67
2024/03/15 07:52:34;;;;;;;12.15;9.90;;;14.20;99.90;;;;;;5060697;28;20214;-72
2024/03/15 07:55:03;;;;;;;13.98;9.38;;;14.10;99.90;;;;;;5061722;28;20207;-70
2024/03/15 07:57:30;;;;;;;16.08;10.90;;;14.20;99.90;;;;;;5053718;28;20283;-69
2024/03/15 07:59:57;;;;;;;13.45;11.25;;;14.10;99.90;;;;;;5037587;28;20196;-67
2024/03/15 08:02:24;;;;;;;13.90;11.32;;;14.00;99.90;;;;;;5064063;28;20302;-70
2024/03/15 08:04:51;;;;;;;17.77;12.07;;;13.90;99.90;;;;;;5036390;28;20204;-69
2024/03/15 08:07:20;;;;;;;17.50;12.05;;;13.90;99.90;;;;;;5057366;28;20681;-68
2024/03/15 08:09:48;;;;;;;17.85;10.35;;;13.90;99.90;;;;;;5063817;28;20208;-67
2024/03/15 08:12:16;;;;;;;16.48;12.35;;;13.80;99.90;;;;;;5022295;28;20678;-69
2024/03/15 08:14:44;;;;;;;16.50;12.93;;;13.80;99.90;;;;;;5055973;28;20207;-67
2024/03/15 08:17:11;;;;;;;14.07;11.85;;;13.80;99.90;;;;;;5065354;28;20735;-71
2024/03/15 08:19:39;;;;;;;13.18;10.50;;;13.80;99.90;;;;;;5064208;28;20200;-68
2024/03/15 08:22:07;;;;;;;14.55;11.93;;;13.70;99.90;;;;;;5036168;28;20261;-70
2024/03/15 08:24:36;;;;;;;17.33;13.50;;;13.70;99.90;;;;;;5059742;28;20647;-70
2024/03/15 08:27:09;;;;;;;18.13;12.23;;;13.70;99.90;;;;;;5040334;28;20227;-71
2024/03/15 08:29:36;;;;;;;17.65;12.65;;;13.70;99.90;;;;;;5014798;28;20208;-68
2024/03/15 08:32:06;;;;;;;14.98;12.40;;;13.60;99.90;;;;;;5057095;28;20336;-68
2024/03/15 08:34:34;;;;;;;14.23;11.20;;;13.70;99.90;;;;;;5040639;28;20727;-68
2024/03/15 08:37:01;;;;;;;15.00;12.30;;;13.60;99.90;;;;;;5056210;28;20255;-69
2024/03/15 08:39:29;;;;;;;12.18;10.95;;;13.60;99.90;;;;;;5035948;28;20542;-68
2024/03/15 08:41:57;;;;;;;17.50;12.27;;;13.50;99.90;;;;;;5061075;28;20282;-68
2024/03/15 08:44:24;;;;;;;14.30;12.07;;;13.60;99.90;;;;;;5039255;28;20306;-71
2024/03/15 08:46:51;;;;;;;15.90;12.63;;;13.70;99.90;;;;;;5061749;28;20223;-70
2024/03/15 08:49:19;;;;;;;16.33;11.45;;;13.50;99.90;;;;;;5023537;28;20207;-69
2024/03/15 08:51:46;;;;;;;14.07;11.18;;;13.60;99.90;;;;;;5067427;28;20294;-68
2024/03/15 08:54:14;;;;;;;12.20;10.60;;;13.80;99.90;;;;;;5063253;28;20542;-69
2024/03/15 08:56:41;;;;;;;14.80;12.18;;;14.10;99.90;;;;;;5067652;28;20591;-70
2024/03/15 08:59:08;;;;;;;12.80;10.93;;;14.60;99.90;;;;;;5065131;28;20214;-69
2024/03/15 09:01:35;;;;;;;14.60;11.00;;;14.90;99.90;;;;;;5064871;28;20203;-68
2024/03/15 09:04:04;;;;;;;16.30;10.93;;;15.10;99.90;;;;;;5065800;28;20477;-70
2024/03/15 09:06:33;;;;;;;12.85;9.15;;;15.00;99.90;;;;;;5021496;28;20462;-67
2024/03/15 09:09:09;;;;;;;10.15;9.05;;;15.10;99.90;;;;;;5037549;28;20603;-68
2024/03/15 09:11:36;;;;;;;14.10;11.40;;;15.40;99.90;;;;;;5036903;28;20618;-68
2024/03/15 09:14:06;;;;;;;16.20;10.97;;;15.40;99.90;;;;;;5054675;28;20489;-68
2024/03/15 09:16:35;;;;;;;15.82;11.38;;;15.20;99.90;;;;;;5055031;28;20507;-69
2024/03/15 09:19:03;;;;;;;12.10;8.50;;;15.00;99.90;;;;;;5054917;28;20231;-67
2024/03/15 09:21:32;;;;;;;12.18;9.85;;;15.10;99.90;;;;;;5061088;28;20244;-68
2024/03/15 09:24:00;;;;;;;15.35;10.88;;;15.10;99.90;;;;;;5045806;28;20223;-68
2024/03/15 09:26:30;;;;;;;13.50;10.40;;;14.90;99.90;;;;;;5061147;28;20223;-70
2024/03/15 09:28:57;;;;;;;16.55;11.35;;;15.00;99.90;;;;;;5021484;28;20230;-68
2024/03/15 09:31:25;;;;;;;14.43;11.77;;;14.80;99.90;;;;;;5060796;28;20205;-68
2024/03/15 09:33:54;;;;;;;14.13;10.43;;;14.70;99.90;;;;;;5037575;28;20203;-67
2024/03/15 09:36:21;;;;;;;16.75;11.45;;;14.70;99.90;;;;;;5013707;28;20251;-69
2024/03/15 09:38:49;;;;;;;10.98;9.88;;;14.70;99.90;;;;;;5050004;28;20200;-68
2024/03/15 09:41:16;;;;;;;11.53;10.43;;;15.10;99.90;;;;;;5044449;28;20202;-69
2024/03/15 09:43:45;;;;;;;10.53;9.10;;;15.60;99.90;;;;;;5042440;28;20484;-69
2024/03/15 09:46:13;;;;;;;12.00;8.43;;;15.90;99.90;;;;;;5030919;28;20466;-68
2024/03/15 09:48:40;;;;;;;15.30;9.73;;;16.00;99.90;;;;;;5028466;28;20929;-68
2024/03/15 09:51:08;;;;;;;10.50;9.23;;;15.70;99.90;;;;;;5061862;28;20450;-69
2024/03/15 09:53:36;;;;;;;19.77;11.65;;;15.80;99.90;;;;;;5044746;28;20443;-69
2024/03/15 09:56:03;;;;;;;12.57;9.73;;;15.60;99.90;;;;;;5038710;28;20319;-69
2024/03/15 09:58:31;;;;;;;12.60;9.53;;;15.70;99.90;;;;;;5034742;28;20929;-67
2024/03/15 10:00:59;;;;;;;16.00;10.50;;;15.70;99.90;;;;;;5048864;28;20477;-68
2024/03/15 10:03:27;;;;;;;9.97;8.97;;;15.90;99.90;;;;;;5044674;28;20899;-68
2024/03/15 10:05:54;;;;;;;15.10;9.57;;;16.40;99.90;;;;;;5057263;28;20472;-68
2024/03/15 10:08:21;;;;;;;12.07;7.80;;;16.20;99.90;;;;;;5058533;28;20525;-70
2024/03/15 10:10:48;;;;;;;11.53;7.30;;;16.20;99.90;;;;;;5053738;28;20538;-71
2024/03/15 10:13:17;;;;;;;9.67;8.27;;;16.20;99.90;;;;;;5044771;28;20938;-68
2024/03/15 10:15:45;;;;;;;19.43;11.37;;;16.00;99.90;;;;;;5052060;28;20982;-67
2024/03/15 10:18:12;;;;;;;13.23;10.93;;;16.00;99.90;;;;;;5051823;28;21031;-67
2024/03/15 10:20:40;;;;;;;12.27;11.17;;;15.60;99.90;;;;;;5049791;28;20451;-71
2024/03/15 10:23:06;;;;;;;10.83;9.30;;;15.30;99.90;;;;;;5044520;28;20513;-68
2024/03/15 10:25:35;;;;;;;14.18;10.68;;;15.30;99.90;;;;;;5052304;28;21032;-70
2024/03/15 10:28:02;;;;;;;11.33;9.10;;;15.40;99.90;;;;;;5055491;28;20203;-70
2024/03/15 10:30:29;;;;;;;12.13;9.43;;;15.50;99.90;;;;;;5047479;28;20457;-69
2024/03/15 10:32:58;;;;;;;11.13;9.60;;;15.80;99.90;;;;;;5057116;28;20473;-68
2024/03/15 10:35:27;;;;;;;10.40;8.60;;;16.20;99.90;;;;;;5059447;28;20465;-72
2024/03/15 10:37:54;;;;;;;12.03;8.90;;;16.70;99.90;;;;;;5046770;28;20453;-70
2024/03/15 10:40:21;;;;;;;9.60;7.10;;;16.80;99.90;;;;;;5029180;28;20452;-71
2024/03/15 10:42:48;;;;;;;9.90;8.00;;;16.50;99.90;;;;;;5052460;28;20438;-71
2024/03/15 10:45:16;;;;;;;10.53;8.80;;;16.40;99.90;;;;;;5047474;28;20528;-69
2024/03/15 10:47:43;;;;;;;16.60;9.23;;;16.20;99.90;;;;;;5046409;28;20441;-68
2024/03/15 10:50:12;;;;;;;11.40;7.37;;;16.60;99.90;;;;;;5045993;28;20522;-71
2024/03/15 10:52:39;;;;;;;10.40;8.23;;;17.10;99.90;;;;;;5043543;28;20944;-70
2024/03/15 10:55:06;;;;;;;9.70;7.60;;;17.30;99.90;;;;;;5043825;28;20469;-71
2024/03/15 10:57:33;;;;;;;7.10;6.40;;;17.60;99.90;;;;;;5032759;28;20442;-69
2024/03/15 11:00:02;;;;;;;7.93;6.97;;;17.40;99.90;;;;;;5040897;28;20442;-68
2024/03/15 11:02:29;;;;;;;11.07;7.10;;;17.10;99.90;;;;;;5058859;28;20452;-69
2024/03/15 11:04:58;;;;;;;8.23;6.60;;;17.00;99.90;;;;;;5057465;28;20910;-70
2024/03/15 11:07:25;;;;;;;10.47;7.20;;;16.80;99.90;;;;;;5061236;28;20444;-69
2024/03/15 11:09:56;;;;;;;7.90;7.10;;;16.40;99.90;;;;;;5062815;28;20456;-71
2024/03/15 11:12:23;;;;;;;11.33;7.43;;;16.30;99.90;;;;;;5049191;28;20447;-70
2024/03/15 11:14:51;;;;;;;8.40;6.13;;;16.10;99.90;;;;;;5057709;28;20445;-71
2024/03/15 11:17:18;;;;;;;11.07;7.23;;;15.90;99.90;;;;;;5056053;28;20957;-69
2024/03/15 11:19:45;;;;;;;9.03;7.47;;;15.80;99.90;;;;;;5056897;28;20442;-69
2024/03/15 11:22:22;;;;;;;10.07;7.70;;;15.80;99.90;;;;;;5047905;28;20483;-69
2024/03/15 11:24:49;;;;;;;9.60;7.53;;;15.80;99.90;;;;;;5044255;28;20488;-70
2024/03/15 11:27:16;;;;;;;10.70;7.40;;;16.00;99.90;;;;;;5061643;28;20450;-68
2024/03/15 11:29:45;;;;;;;7.90;7.10;;;16.10;99.90;;;;;;5068567;28;20440;-70
2024/03/15 11:32:12;;;;;;;8.07;7.07;;;16.30;99.90;;;;;;5039093;28;20950;-69
2024/03/15 11:34:40;;;;;;;8.77;7.87;;;16.20;99.90;;;;;;5049262;28;20435;-70
2024/03/15 11:37:10;;;;;;;14.07;8.50;;;15.90;99.90;;;;;;5056423;28;20965;-71
2024/03/15 11:39:37;;;;;;;8.50;7.10;;;15.90;99.90;;;;;;5044743;28;20439;-68
2024/03/15 11:42:04;;;;;;;10.17;8.00;;;15.90;99.90;;;;;;5060797;28;20434;-70
2024/03/15 11:44:31;;;;;;;9.03;6.50;;;15.70;99.90;;;;;;5061436;28;20486;-70
2024/03/15 11:46:58;;;;;;;9.77;7.23;;;15.80;99.90;;;;;;5044242;28;20829;-70
2024/03/15 11:49:25;;;;;;;9.73;7.97;;;15.60;99.90;;;;;;5053761;28;20449;-69
2024/03/15 11:51:56;;;;;;;7.78;7.00;;;15.40;99.90;;;;;;5050913;28;20511;-69
2024/03/15 11:54:23;;;;;;;8.55;7.75;;;15.30;99.90;;;;;;5022121;28;20723;-68
2024/03/15 11:56:57;;;;;;;12.20;8.20;;;15.30;99.90;;;;;;5052622;28;20650;-70
2024/03/15 11:59:28;;;;;;;9.70;8.40;;;15.30;99.90;;;;;;5030606;28;20437;-70
2024/03/15 12:01:55;;;;;;;8.98;8.05;;;15.20;99.90;;;;;;5048297;28;20230;-69
2024/03/15 12:04:25;;;;;;;9.67;7.93;;;15.20;99.90;;;;;;5052315;28;20237;-70
2024/03/15 12:06:52;;;;;;;8.33;7.50;;;15.20;99.90;;;;;;5059439;28;20487;-69
2024/03/15 12:09:19;;;;;;;12.20;7.65;;;15.40;99.90;;;;;;5047074;28;20442;-70
2024/03/15 12:11:46;;;;;;;10.43;8.90;;;15.50;99.90;;;;;;5061525;28;20227;-71
2024/03/15 12:14:13;;;;;;;12.73;8.60;;;15.60;99.90;;;;;;5052190;28;20442;-71
2024/03/15 12:16:43;;;;;;;8.67;7.87;;;15.60;99.90;;;;;;5053533;28;20463;-70
2024/03/15 12:19:12;;;;;;;11.20;7.43;;;15.70;99.90;;;;;;5025249;28;20533;-73
2024/03/15 12:21:40;;;;;;;13.67;7.47;;;15.80;99.90;;;;;;5056407;28;20488;-70
2024/03/15 12:24:07;;;;;;;12.13;6.70;;;15.80;99.90;;;;;;5053601;28;20524;-70
2024/03/15 12:26:34;;;;;;;10.00;6.80;;;16.00;99.90;;;;;;5054162;28;20463;-68
2024/03/15 12:29:02;;;;;;;9.97;7.27;;;16.20;99.90;;;;;;5027052;28;20471;-69
2024/03/15 12:31:29;;;;;;;8.40;7.03;;;16.20;99.90;;;;;;5062318;28;20442;-70
2024/03/15 12:33:58;;;;;;;6.73;6.10;;;16.30;99.90;;;;;;5058986;28;22070;-69
2024/03/15 12:36:26;;;;;;;13.00;7.20;;;16.40;99.90;;;;;;5050470;28;20518;-69